Airfield :
LOGIN :

Register | Disclaimer

   EN    FR    IT 

 










Legend :    VFR   Marginal VFR   IFR   Intensive IFR   Very Intensive IFR
Visi :
Ceiling :
>= 8 km
>= 3000ft
5 to 8 km
1000 to 3000 ft
1500m to 5 km
500 to 1000 ft
800 to 1500m
200 to 500 ft
< 800m
< 200 ft
Symbols :   Thunderstorms  Fog  Heavy snow  Heavy precipitations  Wind > 20 kt
SIGMETs :     Misc.  Thunderstorms  Icing  Turbulence  Mountain Waves  Volcanic Ashes






- Airport Elevation : 1568 ft


ETSB - Büchel AB

CURRENT METAR :
  • 301820Z AUTO 30013KT 9999 // ////// 15/12 Q1013 ///

EXPIRED METARs :
  • 301720Z AUTO 30014G24KT 9999 // ////// 20/15 Q1011 ///
  • 301620Z AUTO 16009KT 9999 // ////// 26/11 Q1009 ///

TAF TAF ETSB
Valid from the 30 at 14:00 until the 30 at 23:00 UTC


301319Z 3014/3023 17005KT 9999 NSW SCT340
BECMG 3014/3016 22008KT 9999 NSW SCT050 BKN100
TEMPO 3014/3023 VRB15G30KT 3000 SHRA BKN005 BKN050CB
PROB30 3014/3023 VRB20G45KT 0500 +TSRAGR BKN001 BKN020CB BY ETGL



MET'MAP, your aeronautical weather chart ! - Copyright ORBIFLY December 2007 - Disclaimer

ORBIFLY MET'MAP TEAM :

Programming & Development : Alexandra Zaïnal
Original concept : Baudouin d'Aumeries
Technical & hardware support : Manuel Goepfert
Assistance : Marc-Olivier Méhu




SOURCES & CREDITS :

   NOAA